Time;durP1;ratioP1;P1;durP2;ratioP2;P2;SDS_P1;SDS_P2;PMS_P1;PMS_P2;Temp;Humidity;BMP_temperature;BMP_pressure;BME280_temperature;BME280_humidity;BME280_pressure;Samples;Min_cycle;Max_cycle;Signal;HPM_P1;HPM_P2
2022/08/29 00:00:09;;;;;;;19.95;7.53;;;;;;;18.76;68.90;96411.66;5093249;28;20101;-57
2022/08/29 00:02:38;;;;;;;15.05;6.68;;;;;;;18.75;67.93;96414.44;5093191;28;20481;-57
2022/08/29 00:05:06;;;;;;;16.08;6.70;;;;;;;18.64;67.35;96412.56;5093173;28;20048;-57
2022/08/29 00:07:34;;;;;;;17.20;7.28;;;;;;;18.64;67.84;96407.25;5092970;28;20509;-57
2022/08/29 00:10:03;;;;;;;11.73;6.88;;;;;;;18.61;68.59;96405.69;5093038;28;20147;-57
2022/08/29 00:12:31;;;;;;;15.90;6.72;;;;;;;18.46;69.08;96410.28;5093064;28;20044;-58
2022/08/29 00:14:58;;;;;;;14.60;7.22;;;;;;;18.45;68.58;96413.88;5093084;28;20048;-58
2022/08/29 00:17:25;;;;;;;16.80;7.30;;;;;;;18.44;68.57;96410.41;5092972;28;20076;-58
2022/08/29 00:19:54;;;;;;;17.40;7.53;;;;;;;18.54;68.79;96409.72;5094340;28;20097;-57
2022/08/29 00:22:21;;;;;;;18.55;7.70;;;;;;;18.46;69.28;96414.72;5096985;28;20498;-57
2022/08/29 00:24:48;;;;;;;18.63;7.32;;;;;;;18.32;69.70;96416.56;5097090;28;20044;-58
2022/08/29 00:27:15;;;;;;;15.32;7.60;;;;;;;18.30;69.20;96410.53;5097010;28;20044;-57
2022/08/29 00:29:42;;;;;;;13.98;7.20;;;;;;;18.37;69.27;96417.09;5096941;28;20044;-57
2022/08/29 00:32:10;;;;;;;19.90;6.97;;;;;;;18.35;69.74;96419.00;5096850;28;20130;-58
2022/08/29 00:34:37;;;;;;;14.27;7.00;;;;;;;18.37;69.56;96421.53;5096841;28;20044;-56
2022/08/29 00:37:05;;;;;;;16.77;7.07;;;;;;;18.39;69.02;96422.28;5096851;28;20485;-58
2022/08/29 00:39:33;;;;;;;21.80;7.45;;;;;;;18.44;69.55;96421.00;5096440;28;20052;-59
2022/08/29 00:42:00;;;;;;;15.60;6.93;;;;;;;18.40;69.59;96422.19;5096804;28;20052;-57
2022/08/29 00:44:28;;;;;;;15.85;7.80;;;;;;;18.37;69.70;96422.41;5096751;28;20044;-58
2022/08/29 00:46:57;;;;;;;18.80;7.38;;;;;;;18.39;70.03;96419.63;5096594;28;20143;-57
2022/08/29 00:49:34;;;;;;;14.68;6.80;;;;;;;18.36;69.57;96414.56;5096337;28;20051;-57
2022/08/29 00:52:08;;;;;;;11.73;7.72;;;;;;;18.36;69.14;96425.97;5096527;28;20044;-59
2022/08/29 00:54:36;;;;;;;20.92;8.73;;;;;;;18.30;70.16;96427.28;5096605;28;20143;-57
2022/08/29 00:57:04;;;;;;;21.10;7.57;;;;;;;18.28;70.10;96434.50;5096407;28;20047;-57
2022/08/29 00:59:36;;;;;;;17.52;7.30;;;;;;;18.26;69.73;96430.25;5096422;28;20047;-58
2022/08/29 01:02:05;;;;;;;21.60;8.30;;;;;;;18.16;69.64;96433.56;5096400;28;20405;-58
2022/08/29 01:04:33;;;;;;;15.05;7.78;;;;;;;18.18;70.68;96431.63;5096256;28;20040;-59
2022/08/29 01:07:00;;;;;;;22.45;7.50;;;;;;;18.14;70.04;96435.47;5096100;28;20512;-59
2022/08/29 01:09:30;;;;;;;15.80;7.70;;;;;;;18.08;70.11;96427.06;5096107;28;20052;-60
2022/08/29 01:12:14;;;;;;;14.35;7.32;;;;;;;18.00;70.83;96423.16;5096154;28;20554;-59
2022/08/29 01:14:46;;;;;;;18.55;8.45;;;;;;;17.93;70.71;96427.19;5096028;28;20181;-60
2022/08/29 01:17:18;;;;;;;19.65;8.88;;;;;;;17.92;71.42;96426.38;5096150;28;20048;-60
2022/08/29 01:19:49;;;;;;;18.20;8.07;;;;;;;17.95;71.07;96417.34;5095993;28;20048;-58
2022/08/29 01:22:58;;;;;;;12.77;7.25;;;;;;;17.95;70.81;96420.00;5095949;28;20047;-59
2022/08/29 01:25:30;;;;;;;15.43;7.93;;;;;;;18.00;70.98;96420.50;5085547;28;20051;-59
2022/08/29 01:28:03;;;;;;;20.00;8.05;;;;;;;18.00;70.91;96417.03;5095719;28;20113;-60
2022/08/29 01:30:30;;;;;;;14.20;7.05;;;;;;;17.97;70.38;96412.78;5095437;28;20481;-59
2022/08/29 01:32:59;;;;;;;17.45;8.63;;;;;;;18.00;70.87;96412.56;5094959;28;20048;-59
2022/08/29 01:35:27;;;;;;;21.02;8.00;;;;;;;18.04;70.83;96410.56;5095592;28;20047;-60
2022/08/29 01:37:55;;;;;;;21.73;8.63;;;;;;;18.01;70.58;96413.44;5095644;28;20124;-59
2022/08/29 01:40:30;;;;;;;14.85;7.82;;;;;;;18.01;70.57;96418.72;5095468;28;20052;-59
2022/08/29 01:42:57;;;;;;;17.33;8.68;;;;;;;17.99;70.78;96412.69;5095589;28;20044;-60
2022/08/29 01:45:24;;;;;;;19.67;7.57;;;;;;;17.90;70.44;96417.66;5095437;28;20051;-58
2022/08/29 01:47:52;;;;;;;15.02;7.30;;;;;;;17.86;70.78;96418.84;5095285;28;20093;-59
2022/08/29 01:50:19;;;;;;;21.05;7.85;;;;;;;17.90;70.73;96422.09;5095466;28;20064;-60
2022/08/29 01:52:46;;;;;;;16.67;7.40;;;;;;;17.91;70.74;96423.81;5095338;28;20417;-60
2022/08/29 01:55:13;;;;;;;15.27;8.05;;;;;;;17.92;71.01;96420.22;5095432;28;20057;-58
2022/08/29 01:57:41;;;;;;;25.55;7.43;;;;;;;17.92;71.13;96418.44;5095251;28;20076;-59
2022/08/29 02:00:10;;;;;;;16.55;8.50;;;;;;;17.93;71.18;96421.91;5095252;28;20048;-61
2022/08/29 02:02:40;;;;;;;22.23;7.88;;;;;;;17.91;71.24;96423.81;5095312;28;20114;-59
2022/08/29 02:05:07;;;;;;;13.57;8.02;;;;;;;17.86;71.25;96420.63;5095149;28;20055;-58
2022/08/29 02:07:34;;;;;;;18.70;8.85;;;;;;;17.77;71.37;96425.63;5095010;28;20537;-60
2022/08/29 02:10:02;;;;;;;15.50;7.78;;;;;;;17.75;71.96;96424.00;5094938;28;20106;-60
2022/08/29 02:12:30;;;;;;;17.88;7.75;;;;;;;17.76;71.87;96423.09;5094980;28;20048;-59
2022/08/29 02:14:59;;;;;;;21.67;8.98;;;;;;;17.78;72.11;96422.00;5094821;28;20076;-60
2022/08/29 02:17:26;;;;;;;23.80;7.10;;;;;;;17.78;71.66;96424.66;5094826;28;20075;-60
2022/08/29 02:19:53;;;;;;;14.50;7.35;;;;;;;17.76;71.54;96423.91;5094708;28;20040;-58
2022/08/29 02:22:21;;;;;;;12.18;7.90;;;;;;;17.80;71.78;96421.91;5094677;28;20127;-60
2022/08/29 02:24:48;;;;;;;17.73;8.40;;;;;;;17.78;71.61;96422.00;5094678;28;20043;-60
2022/08/29 02:27:15;;;;;;;21.10;7.82;;;;;;;17.75;71.73;96419.59;5094758;28;20051;-59
2022/08/29 02:29:42;;;;;;;15.93;7.72;;;;;;;17.72;71.62;96417.16;5094610;28;20101;-59
2022/08/29 02:32:12;;;;;;;21.95;8.75;;;;;;;17.73;71.92;96423.28;5094626;28;20066;-58
2022/08/29 02:34:43;;;;;;;22.42;8.30;;;;;;;17.71;71.84;96428.69;5094452;28;20093;-59
2022/08/29 02:37:10;;;;;;;17.00;8.05;;;;;;;17.71;71.65;96426.03;5094503;28;20048;-59
2022/08/29 02:39:37;;;;;;;15.40;7.80;;;;;;;17.70;72.16;96423.50;5094195;28;20101;-58
2022/08/29 02:42:05;;;;;;;14.27;8.00;;;;;;;17.68;72.16;96423.59;5094213;28;20052;-59
2022/08/29 02:44:32;;;;;;;17.52;8.27;;;;;;;17.67;72.49;96429.84;5094603;28;20126;-58
2022/08/29 02:46:59;;;;;;;22.17;8.35;;;;;;;17.62;72.58;96431.97;5094413;28;20482;-58
2022/08/29 02:49:28;;;;;;;21.45;9.13;;;;;;;17.62;72.72;96424.88;5094056;28;20378;-58
2022/08/29 02:51:55;;;;;;;14.35;8.45;;;;;;;17.62;72.60;96430.16;5094235;28;20545;-59
2022/08/29 02:54:22;;;;;;;20.83;8.48;;;;;;;17.58;72.51;96425.19;5094203;28;20117;-58
2022/08/29 02:56:49;;;;;;;18.85;8.80;;;;;;;17.57;72.83;96428.78;5094174;28;20044;-60
2022/08/29 02:59:16;;;;;;;15.65;8.02;;;;;;;17.54;72.44;96432.47;5094098;28;20050;-58
2022/08/29 03:01:43;;;;;;;17.80;8.95;;;;;;;17.49;72.42;96434.59;5094094;28;20093;-58
2022/08/29 03:04:10;;;;;;;11.73;8.40;;;;;;;17.48;73.58;96436.38;5094046;28;20122;-60
2022/08/29 03:06:39;;;;;;;21.42;9.23;;;;;;;17.50;73.57;96431.00;5093855;28;20083;-58
2022/08/29 03:09:06;;;;;;;20.00;8.20;;;;;;;17.46;73.29;96442.75;5093725;28;20569;-59
2022/08/29 03:11:33;;;;;;;18.27;8.45;;;;;;;17.42;73.29;96442.94;5094027;28;20044;-59
2022/08/29 03:14:00;;;;;;;20.35;9.27;;;;;;;17.36;72.95;96446.00;5093888;28;20134;-58
2022/08/29 03:16:28;;;;;;;18.42;9.20;;;;;;;17.35;73.43;96441.66;5093718;28;20127;-59
2022/08/29 03:18:55;;;;;;;23.15;8.60;;;;;;;17.40;73.84;96451.94;5093716;28;20138;-60
2022/08/29 03:21:26;;;;;;;12.77;7.88;;;;;;;17.36;73.38;96453.91;5093752;28;20040;-59
2022/08/29 03:23:55;;;;;;;18.80;9.50;;;;;;;17.35;73.30;96459.31;5093725;28;20048;-60
2022/08/29 03:26:23;;;;;;;20.27;9.00;;;;;;;17.35;73.48;96460.16;5093650;28;20192;-59
2022/08/29 03:28:50;;;;;;;17.40;9.00;;;;;;;17.41;73.63;96461.56;5093365;28;20048;-58
2022/08/29 03:31:17;;;;;;;17.80;8.18;;;;;;;17.46;73.54;96455.97;5093448;28;20421;-58
2022/08/29 03:33:47;;;;;;;21.95;8.82;;;;;;;17.43;73.04;96459.66;5093468;28;20047;-59
2022/08/29 03:36:14;;;;;;;20.85;8.55;;;;;;;17.39;73.63;96463.44;5093511;28;20044;-60
2022/08/29 03:38:42;;;;;;;18.08;8.57;;;;;;;17.40;73.91;96458.03;5093101;28;20063;-57
2022/08/29 03:41:11;;;;;;;22.98;9.00;;;;;;;17.46;73.89;96461.25;5093381;28;20044;-60
2022/08/29 03:43:38;;;;;;;17.85;8.18;;;;;;;17.45;73.59;96463.03;5093492;28;20047;-59
2022/08/29 03:46:06;;;;;;;18.45;8.63;;;;;;;17.46;73.12;96461.25;5093403;28;20550;-60
2022/08/29 03:48:33;;;;;;;21.63;8.57;;;;;;;17.49;73.83;96463.69;5093200;28;20189;-59
2022/08/29 03:51:00;;;;;;;20.67;8.40;;;;;;;17.48;73.73;96460.19;5093347;28;20060;-58
2022/08/29 03:53:27;;;;;;;21.00;7.78;;;;;;;17.48;73.45;96462.81;5093270;28;20131;-58
2022/08/29 03:55:54;;;;;;;15.20;8.70;;;;;;;17.49;73.61;96463.69;5092765;28;20394;-58
2022/08/29 03:58:23;;;;;;;20.48;8.40;;;;;;;17.53;73.73;96465.16;5093261;28;20044;-60
2022/08/29 04:00:50;;;;;;;23.95;8.15;;;;;;;17.57;73.79;96469.28;5093266;28;20055;-59
2022/08/29 04:03:18;;;;;;;13.65;8.50;;;;;;;17.67;74.10;96467.72;5093137;28;20076;-58
2022/08/29 04:05:46;;;;;;;23.58;8.82;;;;;;;17.73;73.96;96469.09;5093059;28;20055;-59
2022/08/29 04:08:13;;;;;;;22.70;9.07;;;;;;;17.81;74.01;96477.38;5093166;28;20101;-61
2022/08/29 04:10:40;;;;;;;19.70;8.60;;;;;;;17.89;73.59;96478.63;5093196;28;20470;-59
2022/08/29 04:13:08;;;;;;;25.85;9.07;;;;;;;18.01;73.81;96476.94;5093161;28;20079;-60
2022/08/29 04:15:39;;;;;;;19.67;8.98;;;;;;;18.05;73.00;96475.75;5093124;28;20059;-60
2022/08/29 04:18:09;;;;;;;19.42;8.13;;;;;;;18.09;72.94;96474.59;5092956;28;20055;-60
2022/08/29 04:20:40;;;;;;;24.08;8.30;;;;;;;18.15;72.55;96476.84;5093048;28;20047;-60
2022/08/29 04:23:09;;;;;;;22.17;8.57;;;;;;;18.27;72.55;96477.78;5092966;28;20040;-59
2022/08/29 04:25:36;;;;;;;14.73;7.72;;;;;;;18.36;72.81;96473.63;5092911;28;20118;-58
2022/08/29 04:28:05;;;;;;;19.73;8.80;;;;;;;18.43;72.33;96477.53;5092984;28;20585;-59
2022/08/29 04:30:33;;;;;;;19.17;8.02;;;;;;;18.54;72.20;96479.44;5092823;28;20048;-59
2022/08/29 04:33:02;;;;;;;26.73;7.85;;;;;;;18.64;71.92;96482.28;5093033;28;20106;-58
2022/08/29 04:35:29;;;;;;;17.20;8.27;;;;;;;18.78;71.67;96475.97;5092900;28;20143;-60
2022/08/29 04:37:56;;;;;;;23.35;8.25;;;;;;;18.95;71.15;96479.19;5092895;28;20127;-60
2022/08/29 04:40:23;;;;;;;13.15;7.43;;;;;;;19.12;70.93;96471.84;5092554;28;20055;-59
2022/08/29 04:42:51;;;;;;;18.58;8.45;;;;;;;19.34;70.60;96483.50;5092775;28;20094;-60
2022/08/29 04:45:20;;;;;;;18.80;7.28;;;;;;;19.61;70.11;96487.69;5092826;28;20052;-60
2022/08/29 04:47:48;;;;;;;22.83;7.88;;;;;;;20.00;69.30;96484.75;5092845;28;20052;-59
2022/08/29 04:50:19;;;;;;;17.05;6.93;;;;;;;20.49;67.68;96481.88;5092662;28;20176;-60
2022/08/29 04:52:47;;;;;;;18.13;7.60;;;;;;;21.02;66.10;96486.56;5092658;28;20052;-58
2022/08/29 04:55:16;;;;;;;16.25;6.20;;;;;;;21.63;64.31;96486.91;5092835;28;20052;-60
2022/08/29 04:57:43;;;;;;;15.25;6.32;;;;;;;22.24;62.80;96481.00;5092813;28;20044;-60
2022/08/29 05:00:13;;;;;;;11.82;5.72;;;;;;;22.82;60.95;96485.69;5092771;28;20040;-59
2022/08/29 05:02:41;;;;;;;21.23;5.93;;;;;;;23.31;58.88;96482.25;5092645;28;20485;-59
2022/08/29 05:05:10;;;;;;;11.10;5.53;;;;;;;23.88;58.10;96485.19;5092714;28;20044;-59
2022/08/29 05:07:38;;;;;;;18.00;6.43;;;;;;;24.36;56.26;96484.22;5094902;28;20129;-59
2022/08/29 05:10:09;;;;;;;14.60;5.70;;;;;;;24.80;55.32;96484.59;5096136;28;20052;-59
2022/08/29 05:12:38;;;;;;;22.38;5.97;;;;;;;25.23;53.75;96483.03;5096272;28;20124;-61
2022/08/29 05:15:07;;;;;;;18.70;6.05;;;;;;;25.69;52.54;96476.78;5096134;28;20127;-60
2022/08/29 05:17:34;;;;;;;22.30;5.65;;;;;;;26.15;51.39;96472.25;5096137;28;20071;-58
2022/08/29 05:20:01;;;;;;;22.10;5.80;;;;;;;26.57;49.38;96478.66;5096059;28;20113;-60
2022/08/29 05:22:28;;;;;;;14.30;5.85;;;;;;;27.03;49.60;96483.69;5095870;28;20051;-59
2022/08/29 05:24:57;;;;;;;24.50;5.63;;;;;;;27.33;49.66;96483.28;5095969;28;20405;-60
2022/08/29 05:27:25;;;;;;;16.70;5.43;;;;;;;27.55;48.60;96487.16;5095835;28;20094;-59
2022/08/29 05:29:52;;;;;;;18.30;5.38;;;;;;;27.86;48.37;96491.03;5095836;28;20051;-59
2022/08/29 05:32:20;;;;;;;15.95;5.22;;;;;;;28.34;47.34;96488.47;5095658;28;20469;-60
2022/08/29 05:34:49;;;;;;;18.45;5.97;;;;;;;28.78;45.23;96482.75;5095815;28;20101;-59
2022/08/29 05:37:19;;;;;;;13.60;5.40;;;;;;;28.92;43.89;96482.00;5095764;28;20051;-59
2022/08/29 05:39:48;;;;;;;19.48;6.13;;;;;;;28.72;45.04;96490.50;5095331;28;20052;-59
2022/08/29 05:42:18;;;;;;;24.00;5.93;;;;;;;28.52;45.62;96479.31;5095621;28;20388;-60
2022/08/29 05:44:46;;;;;;;19.80;6.00;;;;;;;28.45;46.40;96489.09;5095575;28;20049;-59
2022/08/29 05:47:15;;;;;;;24.98;6.38;;;;;;;28.36;46.54;96486.41;5095453;28;20048;-59
2022/08/29 05:49:44;;;;;;;23.13;6.80;;;;;;;28.11;47.41;96491.00;5095356;28;20051;-59
2022/08/29 05:52:13;;;;;;;16.75;6.65;;;;;;;28.06;47.67;96496.03;5095416;28;20044;-60
2022/08/29 05:54:42;;;;;;;16.40;6.30;;;;;;;28.22;47.31;96497.84;5095395;28;20127;-58
2022/08/29 05:57:13;;;;;;;14.63;5.85;;;;;;;28.48;45.60;96491.44;5095228;28;20533;-58
2022/08/29 05:59:42;;;;;;;17.02;6.15;;;;;;;28.60;44.80;96484.66;5095342;28;20048;-58
2022/08/29 06:02:11;;;;;;;20.52;6.22;;;;;;;28.58;43.85;96489.38;5095231;28;20044;-59
2022/08/29 06:04:39;;;;;;;18.77;7.10;;;;;;;28.40;46.09;96494.13;5095114;28;20050;-59
2022/08/29 06:07:07;;;;;;;17.52;6.32;;;;;;;28.15;47.08;96492.34;5095062;28;20056;-59
2022/08/29 06:09:35;;;;;;;21.88;6.95;;;;;;;27.94;48.00;96495.56;5094954;28;20051;-60
2022/08/29 06:12:03;;;;;;;25.65;6.80;;;;;;;27.79;47.19;96495.41;5095062;28;20416;-60
2022/08/29 06:14:30;;;;;;;17.48;6.35;;;;;;;27.79;46.79;96501.63;5095031;28;20494;-58
2022/08/29 06:16:59;;;;;;;16.73;6.20;;;;;;;28.10;46.97;96502.75;5094577;28;20546;-60
2022/08/29 06:19:28;;;;;;;15.88;6.10;;;;;;;28.59;44.43;96501.00;5094856;28;20055;-58
2022/08/29 06:21:55;;;;;;;18.45;5.45;;;;;;;29.09;44.23;96498.09;5094706;28;20168;-60
2022/08/29 06:24:23;;;;;;;20.70;6.15;;;;;;;29.51;43.78;96499.50;5094741;28;20123;-58
2022/08/29 06:26:50;;;;;;;27.38;6.75;;;;;;;30.03;42.53;96504.31;5094819;28;20055;-58
2022/08/29 06:29:17;;;;;;;21.50;6.05;;;;;;;30.43;41.22;96501.41;5094645;28;20051;-58
2022/08/29 06:31:45;;;;;;;28.52;5.95;;;;;;;30.76;40.08;96508.31;5094694;28;20727;-61
2022/08/29 06:34:14;;;;;;;25.67;6.03;;;;;;;31.02;40.03;96510.50;5094490;28;20048;-60
2022/08/29 06:36:42;;;;;;;22.67;6.03;;;;;;;31.32;39.78;96506.88;5094690;28;20048;-59
2022/08/29 06:39:11;;;;;;;17.98;5.35;;;;;;;31.55;38.49;96513.16;5094259;28;20102;-61
2022/08/29 06:41:39;;;;;;;21.95;5.57;;;;;;;31.71;39.27;96520.16;5094392;28;20509;-61
2022/08/29 06:44:08;;;;;;;23.85;5.78;;;;;;;31.92;37.69;96516.66;5094416;28;20040;-61
2022/08/29 06:46:37;;;;;;;22.73;6.13;;;;;;;32.23;37.83;96509.19;5094464;28;20048;-60
2022/08/29 06:49:08;;;;;;;27.27;6.13;;;;;;;32.49;35.50;96510.41;5094384;28;20456;-59
2022/08/29 06:51:38;;;;;;;26.38;6.60;;;;;;;32.65;35.06;96510.09;5094389;28;20052;-59
2022/08/29 06:54:09;;;;;;;33.45;6.18;;;;;;;32.77;35.13;96504.94;5094238;28;20052;-60
2022/08/29 06:56:36;;;;;;;17.67;5.40;;;;;;;33.01;36.73;96505.47;5094266;28;20510;-61
2022/08/29 06:59:04;;;;;;;30.05;6.30;;;;;;;33.07;36.89;96509.25;5094227;28;20109;-61
2022/08/29 07:01:31;;;;;;;21.98;5.97;;;;;;;33.27;36.36;96509.34;5094207;28;20382;-60
2022/08/29 07:03:59;;;;;;;18.98;6.05;;;;;;;33.67;34.37;96507.75;5094078;28;20047;-59
2022/08/29 07:06:28;;;;;;;20.15;5.90;;;;;;;33.90;34.74;96512.78;5094110;28;20135;-60
2022/08/29 07:08:58;;;;;;;19.53;6.60;;;;;;;34.01;34.40;96514.00;5093936;28;20083;-60
2022/08/29 07:11:28;;;;;;;16.27;5.78;;;;;;;34.06;34.44;96512.56;5093890;28;20570;-61
2022/08/29 07:13:56;;;;;;;;;;;;;;;34.19;34.39;96509.84;5094136;28;20048;-60
2022/08/29 07:16:24;;;;;;;22.25;6.03;;;;;;;34.40;34.44;96514.22;5093859;28;19963;-60
2022/08/29 07:18:51;;;;;;;23.92;6.00;;;;;;;34.32;32.89;96511.75;5093786;28;20087;-59
2022/08/29 07:21:20;;;;;;;19.23;5.70;;;;;;;34.31;33.86;96507.34;5093709;28;20401;-61
2022/08/29 07:23:48;;;;;;;24.73;6.45;;;;;;;34.35;32.77;96513.19;5093695;28;20101;-61
2022/08/29 07:26:19;;;;;;;20.92;5.65;;;;;;;34.32;32.11;96514.44;5093615;28;20044;-62
2022/08/29 07:28:47;;;;;;;22.05;6.00;;;;;;;34.36;34.40;96523.00;5093135;28;20048;-61
2022/08/29 07:31:15;;;;;;;28.23;6.05;;;;;;;34.59;35.46;96514.41;5093249;28;20044;-59
2022/08/29 07:33:42;;;;;;;32.85;6.40;;;;;;;34.83;33.57;96512.06;5093475;28;20055;-59
2022/08/29 07:36:09;;;;;;;19.25;5.80;;;;;;;35.08;32.55;96515.91;5093565;28;20105;-59
2022/08/29 07:38:38;;;;;;;16.50;5.72;;;;;;;34.92;32.50;96516.19;5093516;28;20424;-60
2022/08/29 07:41:07;;;;;;;22.35;5.50;;;;;;;34.66;32.84;96515.25;5093210;28;20044;-60
2022/08/29 07:43:37;;;;;;;24.90;5.63;;;;;;;34.70;34.05;96515.63;5093439;28;20112;-61
2022/08/29 07:46:07;;;;;;;19.17;6.30;;;;;;;34.97;34.44;96515.53;5093339;28;20044;-59
2022/08/29 07:48:34;;;;;;;;;;;;;;;35.06;32.79;96520.75;5093689;28;20375;-60
2022/08/29 07:51:01;;;;;;;19.00;5.57;;;;;;;35.14;32.71;96515.88;5093317;28;19920;-60
2022/08/29 07:53:28;;;;;;;26.23;5.97;;;;;;;35.31;31.17;96506.41;5093332;28;20079;-59
2022/08/29 07:55:55;;;;;;;33.90;6.43;;;;;;;35.17;32.97;96514.63;5093326;28;20048;-60
2022/08/29 07:58:22;;;;;;;24.08;5.82;;;;;;;35.18;31.29;96516.31;5093070;28;20063;-61
2022/08/29 08:00:51;;;;;;;19.17;6.25;;;;;;;35.02;31.41;96507.59;5093141;28;20040;-59
2022/08/29 08:03:20;;;;;;;25.63;5.80;;;;;;;35.02;31.42;96502.16;5093267;28;20146;-59
2022/08/29 08:05:47;;;;;;;23.03;5.90;;;;;;;34.64;31.14;96506.44;5093238;28;20055;-61
2022/08/29 08:08:14;;;;;;;26.67;6.40;;;;;;;34.27;33.10;96503.38;5093119;28;20044;-59
2022/08/29 08:10:42;;;;;;;22.45;5.55;;;;;;;34.14;33.35;96504.25;5092984;28;20066;-59
2022/08/29 08:13:09;;;;;;;26.45;6.63;;;;;;;34.31;32.38;96498.38;5093102;28;20410;-60
2022/08/29 08:15:38;;;;;;;19.08;5.30;;;;;;;34.35;30.94;96494.19;5093020;28;20052;-59
2022/08/29 08:18:07;;;;;;;15.75;5.13;;;;;;;34.20;32.34;96497.13;5092998;28;20117;-59
2022/08/29 08:20:35;;;;;;;20.50;5.40;;;;;;;34.11;34.50;96500.06;5093101;28;20044;-60
2022/08/29 08:23:02;;;;;;;26.80;5.63;;;;;;;34.29;33.89;96498.59;5093130;28;20046;-60
2022/08/29 08:25:29;;;;;;;19.77;5.57;;;;;;;34.38;33.25;96497.34;5092970;28;20413;-60
2022/08/29 08:27:57;;;;;;;15.88;5.07;;;;;;;34.58;30.40;96496.41;5092998;28;20113;-59
2022/08/29 08:30:25;;;;;;;23.85;5.43;;;;;;;34.70;33.50;96495.81;5092918;28;20052;-60
2022/08/29 08:32:53;;;;;;;16.35;5.82;;;;;;;34.37;34.05;96500.25;5093048;28;20493;-61
2022/08/29 08:35:21;;;;;;;23.08;5.15;;;;;;;34.46;31.53;96496.25;5092962;28;20123;-60
2022/08/29 08:37:48;;;;;;;19.63;5.15;;;;;;;34.74;32.34;96497.03;5093076;28;20055;-60
2022/08/29 08:40:21;;;;;;;21.75;5.03;;;;;;;35.08;32.79;96497.72;5092959;28;20478;-61
2022/08/29 08:42:49;;;;;;;14.65;5.78;;;;;;;35.37;30.83;96492.81;5096786;28;20054;-59
2022/08/29 08:45:18;;;;;;;21.75;5.50;;;;;;;35.49;29.83;96495.66;5096636;28;20542;-60
2022/08/29 08:47:50;;;;;;;17.80;5.60;;;;;;;35.49;29.95;96495.66;5096627;28;20097;-60
2022/08/29 08:50:28;;;;;;;16.58;5.22;;;;;;;35.04;29.11;96491.06;5096617;28;20098;-59
2022/08/29 08:53:03;;;;;;;13.48;4.82;;;;;;;35.11;29.71;96497.31;5096629;28;20047;-60
2022/08/29 08:55:40;;;;;;;29.73;5.43;;;;;;;35.06;30.49;96491.66;5096625;28;20048;-61
2022/08/29 08:58:15;;;;;;;25.27;5.22;;;;;;;35.08;29.73;96489.59;5096553;28;20101;-59
2022/08/29 09:00:47;;;;;;;20.30;5.85;;;;;;;35.11;30.05;96491.88;5096312;28;20058;-60
2022/08/29 09:03:28;;;;;;;25.77;5.68;;;;;;;35.41;30.10;96496.75;5096292;28;20135;-60
2022/08/29 09:06:10;;;;;;;20.05;5.10;;;;;;;35.77;29.28;96491.72;5096369;28;20044;-60
2022/08/29 09:08:49;;;;;;;12.75;4.88;;;;;;;36.03;29.23;96497.16;5096270;28;20127;-61
2022/08/29 09:11:25;;;;;;;15.30;4.80;;;;;;;36.24;29.86;96495.09;5095990;28;20044;-59
2022/08/29 09:14:01;;;;;;;16.17;4.75;;;;;;;36.00;30.42;96489.44;5095986;28;20047;-58
2022/08/29 09:16:34;;;;;;;13.75;4.70;;;;;;;36.10;28.63;96495.22;5096159;28;20051;-60
2022/08/29 09:19:04;;;;;;;18.63;5.10;;;;;;;36.22;30.15;96498.06;5096061;28;20052;-61
2022/08/29 09:21:43;;;;;;;15.60;5.05;;;;;;;36.25;29.52;96489.44;5096082;28;20489;-59
2022/08/29 09:24:17;;;;;;;24.73;5.45;;;;;;;36.26;28.89;96488.38;5096044;28;20048;-60
2022/08/29 09:26:44;;;;;;;15.23;5.25;;;;;;;35.98;28.78;96484.22;5095913;28;20134;-60
2022/08/29 09:29:12;;;;;;;22.10;5.78;;;;;;;36.01;29.78;96480.22;5095846;28;20044;-58
2022/08/29 09:31:40;;;;;;;18.08;4.88;;;;;;;35.94;28.70;96483.00;5095742;28;20048;-59
2022/08/29 09:34:11;;;;;;;20.35;5.40;;;;;;;36.07;28.20;96479.31;5095930;28;20456;-59
2022/08/29 09:36:45;;;;;;;20.80;5.78;;;;;;;36.06;28.03;96474.94;5095771;28;20119;-58
2022/08/29 09:39:23;;;;;;;20.17;5.28;;;;;;;35.87;29.11;96472.16;5095568;28;20052;-60
2022/08/29 09:41:53;;;;;;;19.13;4.63;;;;;;;35.95;29.23;96475.66;5095613;28;20135;-60
2022/08/29 09:44:25;;;;;;;19.58;4.82;;;;;;;35.62;26.65;96478.41;5095741;28;20048;-59
2022/08/29 09:47:09;;;;;;;18.13;4.75;;;;;;;35.51;28.85;96473.66;5095630;28;20140;-59
2022/08/29 09:49:38;;;;;;;24.30;5.22;;;;;;;35.50;29.28;96478.28;5093659;28;20060;-61
2022/08/29 09:52:13;;;;;;;17.80;5.73;;;;;;;35.56;29.04;96468.41;5094523;28;20055;-60
2022/08/29 09:54:41;;;;;;;13.35;4.78;;;;;;;35.55;29.58;96472.19;5095588;28;20289;-60
2022/08/29 09:57:20;;;;;;;25.02;5.20;;;;;;;35.73;28.63;96468.75;5095341;28;20048;-59
2022/08/29 09:59:49;;;;;;;25.45;6.03;;;;;;;35.61;28.71;96465.03;5095243;28;20050;-58
2022/08/29 10:02:24;;;;;;;25.77;4.78;;;;;;;35.65;27.41;96466.25;5095255;28;20062;-59
2022/08/29 10:04:54;;;;;;;23.92;4.97;;;;;;;35.39;27.57;96471.66;5095073;28;20094;-59
2022/08/29 10:07:26;;;;;;;17.42;4.93;;;;;;;35.44;28.43;96464.72;5095026;28;20048;-59
2022/08/29 10:09:59;;;;;;;17.33;4.72;;;;;;;35.56;28.15;96468.41;5094980;28;20528;-60
2022/08/29 10:12:38;;;;;;;22.60;5.00;;;;;;;35.76;27.07;96459.31;5095029;28;20048;-59
2022/08/29 10:15:13;;;;;;;14.38;5.38;;;;;;;35.90;27.00;96455.41;5094966;28;20080;-60
2022/08/29 10:20:44;;;;;;;26.27;6.47;;;;;;;35.91;28.37;96454.34;5094932;28;20051;-59
2022/08/29 10:23:22;;;;;;;25.92;5.65;;;;;;;35.83;27.51;96453.78;5094362;28;20090;-59
2022/08/29 10:25:50;;;;;;;26.33;5.53;;;;;;;35.81;27.76;96453.19;5094810;28;20101;-60
2022/08/29 10:28:29;;;;;;;26.95;5.97;;;;;;;35.96;27.04;96444.69;5094871;28;20048;-59
2022/08/29 10:31:03;;;;;;;21.73;5.32;;;;;;;35.87;26.84;96446.84;5094653;28;20044;-59
2022/08/29 10:33:47;;;;;;;15.98;5.13;;;;;;;35.79;27.25;96445.25;5094622;28;20122;-61
2022/08/29 10:36:19;;;;;;;30.92;5.35;;;;;;;35.15;26.81;96444.19;5094598;28;20393;-60
2022/08/29 10:38:55;;;;;;;20.80;5.47;;;;;;;34.75;27.02;96444.41;5094366;28;20052;-59
2022/08/29 10:41:33;;;;;;;13.55;5.15;;;;;;;34.22;26.81;96438.09;5094507;28;20490;-59
2022/08/29 10:44:19;;;;;;;19.15;5.00;;;;;;;34.02;28.11;96437.06;5094371;28;20044;-60
2022/08/29 10:47:04;;;;;;;29.55;5.55;;;;;;;33.90;26.68;96436.00;5094753;28;20044;-59
2022/08/29 10:49:44;;;;;;;18.02;4.63;;;;;;;33.77;27.18;96442.28;5094328;28;20056;-59
2022/08/29 10:52:22;;;;;;;21.17;4.82;;;;;;;33.59;26.78;96432.88;5094199;28;20052;-59
2022/08/29 10:54:59;;;;;;;24.55;5.63;;;;;;;33.37;28.49;96435.78;5094259;28;20087;-60
2022/08/29 10:57:41;;;;;;;15.45;5.53;;;;;;;33.30;28.51;96429.50;5094500;28;20474;-60
2022/08/29 11:00:12;;;;;;;18.27;5.13;;;;;;;33.33;27.78;96426.41;5094047;28;20044;-60
2022/08/29 11:02:44;;;;;;;20.10;4.90;;;;;;;33.55;27.75;96426.19;5094218;28;20052;-60
2022/08/29 11:05:16;;;;;;;25.38;5.15;;;;;;;33.64;26.72;96422.25;5093998;28;20052;-60
2022/08/29 11:07:48;;;;;;;18.08;5.15;;;;;;;33.74;26.53;96427.25;5093907;28;20478;-59
2022/08/29 11:10:21;;;;;;;18.80;4.95;;;;;;;33.50;23.56;96418.69;5093948;28;20143;-58
2022/08/29 11:12:53;;;;;;;20.60;4.57;;;;;;;33.41;22.88;96422.66;5093898;28;20056;-60
2022/08/29 11:15:24;;;;;;;17.42;4.28;;;;;;;33.44;23.84;96402.44;5093947;28;20048;-60
2022/08/29 11:17:59;;;;;;;24.45;4.60;;;;;;;33.68;25.07;96406.44;5093778;28;20446;-59
2022/08/29 11:20:32;;;;;;;24.48;4.47;;;;;;;33.75;26.36;96411.84;5093880;28;20401;-59
2022/08/29 11:23:05;;;;;;;20.50;4.35;;;;;;;33.64;24.86;96402.44;5093638;28;20048;-60
2022/08/29 11:25:40;;;;;;;15.23;5.07;;;;;;;33.69;26.63;96396.41;5093897;28;20052;-59
2022/08/29 11:28:19;;;;;;;21.98;4.82;;;;;;;33.82;26.48;96400.97;5093724;28;20044;-59
2022/08/29 11:30:52;;;;;;;23.45;4.68;;;;;;;33.73;26.89;96400.34;5093567;28;20048;-60
2022/08/29 11:33:31;;;;;;;18.00;5.05;;;;;;;33.72;24.13;96390.56;5093509;28;20048;-59
2022/08/29 11:36:17;;;;;;;15.32;4.22;;;;;;;33.65;24.69;96390.59;5093659;28;20082;-59
2022/08/29 11:39:13;;;;;;;11.77;4.47;;;;;;;33.65;25.50;96388.69;5093312;28;20079;-57
2022/08/29 11:41:45;;;;;;;28.70;5.80;;;;;;;33.60;25.31;96382.22;5093513;28;20048;-59